sensor_id;sensor_type;location;lat;lon;timestamp;P1;durP1;ratioP1;P2;durP2;ratioP2
56752;SDS011;42627;42.646;23.642;2024-03-23T00:52:15;12.00;;;5.00;;
56752;SDS011;42627;42.646;23.642;2024-03-23T00:54:24;8.45;;;4.05;;
56752;SDS011;42627;42.646;23.642;2024-03-23T00:56:34;9.32;;;4.70;;
56752;SDS011;42627;42.646;23.642;2024-03-23T00:58:35;7.90;;;4.78;;
56752;SDS011;42627;42.646;23.642;2024-03-23T01:00:36;9.73;;;4.25;;
56752;SDS011;42627;42.646;23.642;2024-03-23T01:02:38;9.52;;;4.20;;
56752;SDS011;42627;42.646;23.642;2024-03-23T01:04:39;12.32;;;4.60;;
56752;SDS011;42627;42.646;23.642;2024-03-23T01:22:13;8.48;;;4.30;;
56752;SDS011;42627;42.646;23.642;2024-03-23T01:24:15;7.63;;;4.25;;
56752;SDS011;42627;42.646;23.642;2024-03-23T01:26:16;8.23;;;4.40;;
56752;SDS011;42627;42.646;23.642;2024-03-23T01:28:17;7.47;;;4.32;;
56752;SDS011;42627;42.646;23.642;2024-03-23T01:30:18;11.20;;;5.25;;
56752;SDS011;42627;42.646;23.642;2024-03-23T01:32:19;9.90;;;4.80;;
56752;SDS011;42627;42.646;23.642;2024-03-23T01:34:20;9.00;;;4.60;;
56752;SDS011;42627;42.646;23.642;2024-03-23T01:36:21;8.80;;;4.03;;
56752;SDS011;42627;42.646;23.642;2024-03-23T01:38:22;8.88;;;3.90;;
56752;SDS011;42627;42.646;23.642;2024-03-23T01:40:23;9.60;;;4.05;;
56752;SDS011;42627;42.646;23.642;2024-03-23T01:42:24;9.82;;;4.07;;
56752;SDS011;42627;42.646;23.642;2024-03-23T01:44:25;7.72;;;3.78;;
56752;SDS011;42627;42.646;23.642;2024-03-23T01:46:26;11.88;;;3.90;;
56752;SDS011;42627;42.646;23.642;2024-03-23T01:48:30;10.80;;;4.75;;
56752;SDS011;42627;42.646;23.642;2024-03-23T01:50:31;9.20;;;3.58;;
56752;SDS011;42627;42.646;23.642;2024-03-23T01:52:33;6.68;;;3.00;;
56752;SDS011;42627;42.646;23.642;2024-03-23T01:54:35;7.15;;;3.30;;
56752;SDS011;42627;42.646;23.642;2024-03-23T01:56:36;7.35;;;3.53;;
56752;SDS011;42627;42.646;23.642;2024-03-23T01:58:37;10.50;;;3.45;;
56752;SDS011;42627;42.646;23.642;2024-03-23T02:00:38;10.50;;;3.47;;
56752;SDS011;42627;42.646;23.642;2024-03-23T02:02:42;7.55;;;3.83;;
56752;SDS011;42627;42.646;23.642;2024-03-23T02:04:44;8.18;;;3.30;;
56752;SDS011;42627;42.646;23.642;2024-03-23T02:06:45;9.52;;;4.22;;
56752;SDS011;42627;42.646;23.642;2024-03-23T02:08:46;10.07;;;3.90;;
56752;SDS011;42627;42.646;23.642;2024-03-23T02:10:47;10.88;;;3.30;;
56752;SDS011;42627;42.646;23.642;2024-03-23T02:12:49;10.50;;;4.10;;
56752;SDS011;42627;42.646;23.642;2024-03-23T02:14:50;7.25;;;3.72;;
56752;SDS011;42627;42.646;23.642;2024-03-23T02:16:51;6.65;;;2.97;;
56752;SDS011;42627;42.646;23.642;2024-03-23T02:18:52;216.98;;;62.83;;
56752;SDS011;42627;42.646;23.642;2024-03-23T02:20:53;182.85;;;57.00;;
56752;SDS011;42627;42.646;23.642;2024-03-23T02:22:54;79.57;;;28.42;;
56752;SDS011;42627;42.646;23.642;2024-03-23T02:24:55;50.10;;;19.80;;
56752;SDS011;42627;42.646;23.642;2024-03-23T02:26:56;30.45;;;10.35;;
56752;SDS011;42627;42.646;23.642;2024-03-23T02:28:57;27.95;;;9.23;;
56752;SDS011;42627;42.646;23.642;2024-03-23T02:30:58;28.65;;;10.77;;
56752;SDS011;42627;42.646;23.642;2024-03-23T02:33:01;17.42;;;6.97;;
56752;SDS011;42627;42.646;23.642;2024-03-23T02:35:02;22.83;;;8.05;;
56752;SDS011;42627;42.646;23.642;2024-03-23T02:37:10;19.05;;;8.35;;
56752;SDS011;42627;42.646;23.642;2024-03-23T02:39:11;14.30;;;5.50;;
56752;SDS011;42627;42.646;23.642;2024-03-23T02:41:12;12.85;;;4.90;;
56752;SDS011;42627;42.646;23.642;2024-03-23T02:43:13;11.38;;;4.80;;
56752;SDS011;42627;42.646;23.642;2024-03-23T02:45:15;9.57;;;4.47;;
56752;SDS011;42627;42.646;23.642;2024-03-23T02:47:16;6.85;;;3.28;;
56752;SDS011;42627;42.646;23.642;2024-03-23T02:49:17;10.90;;;4.70;;
56752;SDS011;42627;42.646;23.642;2024-03-23T02:51:18;9.68;;;4.60;;
56752;SDS011;42627;42.646;23.642;2024-03-23T02:53:19;7.45;;;3.67;;
56752;SDS011;42627;42.646;23.642;2024-03-23T02:55:20;11.63;;;4.85;;
56752;SDS011;42627;42.646;23.642;2024-03-23T02:57:21;9.90;;;5.03;;
56752;SDS011;42627;42.646;23.642;2024-03-23T02:59:22;9.07;;;4.57;;
56752;SDS011;42627;42.646;23.642;2024-03-23T03:01:23;9.85;;;4.88;;
56752;SDS011;42627;42.646;23.642;2024-03-23T03:03:26;6.40;;;4.10;;
56752;SDS011;42627;42.646;23.642;2024-03-23T03:05:27;11.45;;;4.55;;
56752;SDS011;42627;42.646;23.642;2024-03-23T03:07:28;10.32;;;4.43;;
56752;SDS011;42627;42.646;23.642;2024-03-23T03:09:49;8.80;;;4.20;;
56752;SDS011;42627;42.646;23.642;2024-03-23T03:11:50;12.20;;;4.15;;
56752;SDS011;42627;42.646;23.642;2024-03-23T03:13:51;9.48;;;4.85;;
56752;SDS011;42627;42.646;23.642;2024-03-23T03:15:52;14.13;;;5.53;;
56752;SDS011;42627;42.646;23.642;2024-03-23T03:17:53;12.52;;;4.45;;
56752;SDS011;42627;42.646;23.642;2024-03-23T03:19:57;9.00;;;4.82;;
56752;SDS011;42627;42.646;23.642;2024-03-23T03:24:09;7.68;;;3.80;;
56752;SDS011;42627;42.646;23.642;2024-03-23T03:26:10;7.57;;;4.18;;
56752;SDS011;42627;42.646;23.642;2024-03-23T03:28:11;9.00;;;4.15;;
56752;SDS011;42627;42.646;23.642;2024-03-23T03:30:12;127.63;;;45.20;;
56752;SDS011;42627;42.646;23.642;2024-03-23T03:32:13;82.05;;;28.75;;
56752;SDS011;42627;42.646;23.642;2024-03-23T03:34:15;15.65;;;7.30;;
56752;SDS011;42627;42.646;23.642;2024-03-23T03:36:17;9.25;;;4.43;;
56752;SDS011;42627;42.646;23.642;2024-03-23T03:38:18;9.77;;;3.80;;
56752;SDS011;42627;42.646;23.642;2024-03-23T03:40:19;10.40;;;4.97;;
56752;SDS011;42627;42.646;23.642;2024-03-23T03:42:20;8.25;;;4.65;;
56752;SDS011;42627;42.646;23.642;2024-03-23T03:44:21;8.88;;;3.58;;
56752;SDS011;42627;42.646;23.642;2024-03-23T03:46:22;10.82;;;4.43;;
56752;SDS011;42627;42.646;23.642;2024-03-23T03:48:23;6.75;;;3.20;;
56752;SDS011;42627;42.646;23.642;2024-03-23T03:50:27;7.05;;;3.53;;
56752;SDS011;42627;42.646;23.642;2024-03-23T03:52:28;7.25;;;3.30;;
56752;SDS011;42627;42.646;23.642;2024-03-23T03:54:29;17.65;;;6.97;;
56752;SDS011;42627;42.646;23.642;2024-03-23T03:56:30;63.88;;;20.55;;
56752;SDS011;42627;42.646;23.642;2024-03-23T03:58:31;30.02;;;12.85;;
56752;SDS011;42627;42.646;23.642;2024-03-23T04:00:32;17.23;;;9.13;;
56752;SDS011;42627;42.646;23.642;2024-03-23T04:02:33;11.90;;;5.75;;
56752;SDS011;42627;42.646;23.642;2024-03-23T04:04:34;8.13;;;3.53;;
56752;SDS011;42627;42.646;23.642;2024-03-23T04:06:35;9.40;;;3.78;;
56752;SDS011;42627;42.646;23.642;2024-03-23T04:08:36;7.72;;;3.85;;
56752;SDS011;42627;42.646;23.642;2024-03-23T04:12:48;23.05;;;7.90;;
56752;SDS011;42627;42.646;23.642;2024-03-23T04:14:49;18.48;;;6.80;;
56752;SDS011;42627;42.646;23.642;2024-03-23T04:16:50;11.60;;;5.38;;
56752;SDS011;42627;42.646;23.642;2024-03-23T04:18:51;7.32;;;3.75;;
56752;SDS011;42627;42.646;23.642;2024-03-23T04:20:56;12.02;;;4.93;;
56752;SDS011;42627;42.646;23.642;2024-03-23T04:22:57;10.50;;;3.95;;
56752;SDS011;42627;42.646;23.642;2024-03-23T04:24:58;6.28;;;3.42;;
56752;SDS011;42627;42.646;23.642;2024-03-23T04:26:59;6.72;;;3.97;;
56752;SDS011;42627;42.646;23.642;2024-03-23T04:31:18;7.45;;;3.60;;
56752;SDS011;42627;42.646;23.642;2024-03-23T04:33:21;6.80;;;3.42;;
56752;SDS011;42627;42.646;23.642;2024-03-23T04:35:28;7.05;;;2.90;;
56752;SDS011;42627;42.646;23.642;2024-03-23T04:37:29;7.03;;;2.92;;
56752;SDS011;42627;42.646;23.642;2024-03-23T04:39:36;8.02;;;3.33;;
56752;SDS011;42627;42.646;23.642;2024-03-23T04:41:37;9.27;;;2.90;;
56752;SDS011;42627;42.646;23.642;2024-03-23T04:43:39;5.82;;;3.30;;
56752;SDS011;42627;42.646;23.642;2024-03-23T04:45:43;6.53;;;3.15;;
56752;SDS011;42627;42.646;23.642;2024-03-23T04:47:44;7.93;;;3.63;;
56752;SDS011;42627;42.646;23.642;2024-03-23T04:49:45;9.57;;;3.22;;
56752;SDS011;42627;42.646;23.642;2024-03-23T04:51:46;8.85;;;3.47;;
56752;SDS011;42627;42.646;23.642;2024-03-23T04:53:47;8.52;;;3.40;;
56752;SDS011;42627;42.646;23.642;2024-03-23T04:55:48;7.65;;;3.50;;
56752;SDS011;42627;42.646;23.642;2024-03-23T04:57:49;6.80;;;3.30;;
56752;SDS011;42627;42.646;23.642;2024-03-23T04:59:50;5.95;;;3.15;;
56752;SDS011;42627;42.646;23.642;2024-03-23T05:01:51;7.57;;;3.38;;
56752;SDS011;42627;42.646;23.642;2024-03-23T05:03:52;7.18;;;3.35;;
56752;SDS011;42627;42.646;23.642;2024-03-23T05:05:53;8.75;;;2.95;;
56752;SDS011;42627;42.646;23.642;2024-03-23T05:07:54;7.55;;;3.08;;
56752;SDS011;42627;42.646;23.642;2024-03-23T05:09:55;6.05;;;2.90;;
56752;SDS011;42627;42.646;23.642;2024-03-23T05:11:56;7.57;;;3.78;;
56752;SDS011;42627;42.646;23.642;2024-03-23T05:13:57;9.02;;;3.80;;
56752;SDS011;42627;42.646;23.642;2024-03-23T05:15:58;6.90;;;3.83;;
56752;SDS011;42627;42.646;23.642;2024-03-23T05:28:16;33.97;;;11.82;;
56752;SDS011;42627;42.646;23.642;2024-03-23T05:39:28;15.18;;;6.50;;
56752;SDS011;42627;42.646;23.642;2024-03-23T05:41:29;8.75;;;4.57;;
56752;SDS011;42627;42.646;23.642;2024-03-23T05:43:30;9.57;;;3.90;;
56752;SDS011;42627;42.646;23.642;2024-03-23T05:45:31;9.10;;;4.07;;
56752;SDS011;42627;42.646;23.642;2024-03-23T05:47:32;10.98;;;5.30;;
56752;SDS011;42627;42.646;23.642;2024-03-23T05:49:33;8.27;;;4.05;;
56752;SDS011;42627;42.646;23.642;2024-03-23T05:51:39;8.75;;;4.15;;
56752;SDS011;42627;42.646;23.642;2024-03-23T05:53:44;11.25;;;5.38;;
56752;SDS011;42627;42.646;23.642;2024-03-23T05:55:45;11.50;;;6.82;;
56752;SDS011;42627;42.646;23.642;2024-03-23T05:57:50;10.45;;;5.20;;
56752;SDS011;42627;42.646;23.642;2024-03-23T05:59:51;9.82;;;4.47;;
56752;SDS011;42627;42.646;23.642;2024-03-23T06:04:29;10.30;;;5.03;;
56752;SDS011;42627;42.646;23.642;2024-03-23T06:06:35;11.27;;;4.95;;
56752;SDS011;42627;42.646;23.642;2024-03-23T06:08:45;10.07;;;5.40;;
56752;SDS011;42627;42.646;23.642;2024-03-23T06:10:46;9.90;;;4.70;;
56752;SDS011;42627;42.646;23.642;2024-03-23T06:12:47;10.27;;;4.03;;
56752;SDS011;42627;42.646;23.642;2024-03-23T06:14:52;10.98;;;4.82;;
56752;SDS011;42627;42.646;23.642;2024-03-23T06:16:53;7.43;;;3.90;;
56752;SDS011;42627;42.646;23.642;2024-03-23T06:18:55;7.13;;;4.13;;
56752;SDS011;42627;42.646;23.642;2024-03-23T06:20:56;11.48;;;4.03;;
56752;SDS011;42627;42.646;23.642;2024-03-23T06:25:08;8.80;;;4.03;;
56752;SDS011;42627;42.646;23.642;2024-03-23T06:27:09;12.77;;;4.28;;
56752;SDS011;42627;42.646;23.642;2024-03-23T06:29:10;10.45;;;4.25;;
56752;SDS011;42627;42.646;23.642;2024-03-23T06:31:11;7.82;;;4.55;;
56752;SDS011;42627;42.646;23.642;2024-03-23T06:33:13;7.43;;;4.07;;
56752;SDS011;42627;42.646;23.642;2024-03-23T06:35:14;8.18;;;4.03;;
56752;SDS011;42627;42.646;23.642;2024-03-23T06:44:56;10.88;;;4.30;;
56752;SDS011;42627;42.646;23.642;2024-03-23T06:46:57;8.60;;;4.07;;
56752;SDS011;42627;42.646;23.642;2024-03-23T06:48:58;10.05;;;4.68;;
56752;SDS011;42627;42.646;23.642;2024-03-23T06:50:59;7.03;;;3.88;;
56752;SDS011;42627;42.646;23.642;2024-03-23T06:53:13;7.63;;;3.75;;
56752;SDS011;42627;42.646;23.642;2024-03-23T06:55:14;12.70;;;3.95;;
56752;SDS011;42627;42.646;23.642;2024-03-23T06:57:16;9.02;;;4.25;;
56752;SDS011;42627;42.646;23.642;2024-03-23T06:59:19;9.90;;;4.72;;
56752;SDS011;42627;42.646;23.642;2024-03-23T07:01:20;9.23;;;4.88;;
56752;SDS011;42627;42.646;23.642;2024-03-23T07:03:21;10.00;;;4.68;;
56752;SDS011;42627;42.646;23.642;2024-03-23T07:05:23;10.48;;;5.10;;
56752;SDS011;42627;42.646;23.642;2024-03-23T07:09:27;10.50;;;5.63;;
56752;SDS011;42627;42.646;23.642;2024-03-23T07:11:28;9.60;;;4.95;;
56752;SDS011;42627;42.646;23.642;2024-03-23T07:13:30;12.43;;;5.60;;
56752;SDS011;42627;42.646;23.642;2024-03-23T07:15:32;11.68;;;5.15;;
56752;SDS011;42627;42.646;23.642;2024-03-23T07:17:33;13.88;;;5.72;;
56752;SDS011;42627;42.646;23.642;2024-03-23T07:19:35;8.07;;;4.55;;
56752;SDS011;42627;42.646;23.642;2024-03-23T07:21:45;13.00;;;4.78;;
56752;SDS011;42627;42.646;23.642;2024-03-23T07:24:43;9.35;;;4.38;;
56752;SDS011;42627;42.646;23.642;2024-03-23T07:29:10;13.35;;;5.50;;
56752;SDS011;42627;42.646;23.642;2024-03-23T07:31:15;9.40;;;4.65;;
56752;SDS011;42627;42.646;23.642;2024-03-23T07:33:16;9.98;;;4.97;;
56752;SDS011;42627;42.646;23.642;2024-03-23T07:35:17;11.27;;;4.70;;
56752;SDS011;42627;42.646;23.642;2024-03-23T07:37:18;8.63;;;5.00;;
56752;SDS011;42627;42.646;23.642;2024-03-23T07:39:25;7.43;;;4.45;;
56752;SDS011;42627;42.646;23.642;2024-03-23T07:43:49;10.13;;;4.97;;
56752;SDS011;42627;42.646;23.642;2024-03-23T07:45:53;10.60;;;4.95;;
56752;SDS011;42627;42.646;23.642;2024-03-23T07:47:54;15.50;;;5.20;;
56752;SDS011;42627;42.646;23.642;2024-03-23T07:49:55;10.07;;;4.80;;
56752;SDS011;42627;42.646;23.642;2024-03-23T07:52:12;9.77;;;5.30;;
56752;SDS011;42627;42.646;23.642;2024-03-23T07:57:03;9.60;;;4.38;;
56752;SDS011;42627;42.646;23.642;2024-03-23T07:59:04;7.50;;;3.97;;
56752;SDS011;42627;42.646;23.642;2024-03-23T08:01:06;9.98;;;4.30;;
56752;SDS011;42627;42.646;23.642;2024-03-23T08:03:10;11.70;;;4.75;;
56752;SDS011;42627;42.646;23.642;2024-03-23T08:05:11;11.52;;;5.00;;
56752;SDS011;42627;42.646;23.642;2024-03-23T08:07:12;11.15;;;5.28;;
56752;SDS011;42627;42.646;23.642;2024-03-23T08:09:13;8.50;;;4.65;;
56752;SDS011;42627;42.646;23.642;2024-03-23T08:13:34;9.18;;;3.75;;
56752;SDS011;42627;42.646;23.642;2024-03-23T08:15:36;9.88;;;4.63;;
56752;SDS011;42627;42.646;23.642;2024-03-23T08:17:37;8.48;;;4.47;;
56752;SDS011;42627;42.646;23.642;2024-03-23T08:19:38;11.25;;;4.28;;
56752;SDS011;42627;42.646;23.642;2024-03-23T08:21:41;9.25;;;4.68;;
56752;SDS011;42627;42.646;23.642;2024-03-23T08:23:42;9.43;;;4.38;;
56752;SDS011;42627;42.646;23.642;2024-03-23T08:25:44;7.13;;;3.55;;
56752;SDS011;42627;42.646;23.642;2024-03-23T08:30:20;9.68;;;4.38;;
56752;SDS011;42627;42.646;23.642;2024-03-23T08:32:36;7.50;;;4.00;;
56752;SDS011;42627;42.646;23.642;2024-03-23T08:36:57;11.57;;;4.35;;
56752;SDS011;42627;42.646;23.642;2024-03-23T08:38:58;8.65;;;4.57;;
56752;SDS011;42627;42.646;23.642;2024-03-23T08:40:59;11.30;;;4.93;;
56752;SDS011;42627;42.646;23.642;2024-03-23T08:43:01;10.55;;;5.57;;
56752;SDS011;42627;42.646;23.642;2024-03-23T08:45:02;8.70;;;4.93;;
56752;SDS011;42627;42.646;23.642;2024-03-23T08:51:39;11.10;;;5.78;;
56752;SDS011;42627;42.646;23.642;2024-03-23T08:53:45;12.02;;;5.90;;
56752;SDS011;42627;42.646;23.642;2024-03-23T08:58:30;12.63;;;5.85;;
56752;SDS011;42627;42.646;23.642;2024-03-23T09:00:32;12.90;;;5.47;;
56752;SDS011;42627;42.646;23.642;2024-03-23T09:07:37;9.20;;;4.95;;
56752;SDS011;42627;42.646;23.642;2024-03-23T09:09:40;10.50;;;5.22;;
56752;SDS011;42627;42.646;23.642;2024-03-23T09:11:51;8.30;;;4.40;;
56752;SDS011;42627;42.646;23.642;2024-03-23T09:13:52;11.02;;;4.90;;
56752;SDS011;42627;42.646;23.642;2024-03-23T09:15:53;10.00;;;4.80;;
56752;SDS011;42627;42.646;23.642;2024-03-23T09:17:58;8.32;;;4.53;;
56752;SDS011;42627;42.646;23.642;2024-03-23T09:20:00;9.32;;;4.78;;
56752;SDS011;42627;42.646;23.642;2024-03-23T09:22:13;11.45;;;5.28;;
56752;SDS011;42627;42.646;23.642;2024-03-23T09:24:14;10.52;;;4.68;;
56752;SDS011;42627;42.646;23.642;2024-03-23T09:26:16;8.45;;;4.53;;
56752;SDS011;42627;42.646;23.642;2024-03-23T09:28:17;10.68;;;4.93;;
56752;SDS011;42627;42.646;23.642;2024-03-23T09:30:18;10.10;;;4.63;;
56752;SDS011;42627;42.646;23.642;2024-03-23T09:35:02;8.93;;;4.30;;
56752;SDS011;42627;42.646;23.642;2024-03-23T09:37:19;9.63;;;4.53;;
56752;SDS011;42627;42.646;23.642;2024-03-23T09:39:20;9.15;;;4.57;;
56752;SDS011;42627;42.646;23.642;2024-03-23T09:41:21;10.48;;;4.97;;
56752;SDS011;42627;42.646;23.642;2024-03-23T09:43:22;10.45;;;4.68;;
56752;SDS011;42627;42.646;23.642;2024-03-23T09:45:27;8.50;;;4.82;;
56752;SDS011;42627;42.646;23.642;2024-03-23T09:47:28;11.48;;;4.88;;
56752;SDS011;42627;42.646;23.642;2024-03-23T09:49:29;12.52;;;4.80;;
56752;SDS011;42627;42.646;23.642;2024-03-23T09:51:32;9.30;;;4.88;;
56752;SDS011;42627;42.646;23.642;2024-03-23T09:53:33;8.70;;;4.78;;
56752;SDS011;42627;42.646;23.642;2024-03-23T09:55:34;8.65;;;4.38;;
56752;SDS011;42627;42.646;23.642;2024-03-23T09:57:36;9.02;;;3.70;;
56752;SDS011;42627;42.646;23.642;2024-03-23T09:59:37;6.85;;;3.58;;
56752;SDS011;42627;42.646;23.642;2024-03-23T10:01:38;8.43;;;3.70;;
56752;SDS011;42627;42.646;23.642;2024-03-23T10:03:42;6.57;;;3.20;;
56752;SDS011;42627;42.646;23.642;2024-03-23T10:08:24;5.03;;;2.53;;
56752;SDS011;42627;42.646;23.642;2024-03-23T10:13:28;5.22;;;3.00;;
56752;SDS011;42627;42.646;23.642;2024-03-23T10:15:35;5.95;;;3.03;;
56752;SDS011;42627;42.646;23.642;2024-03-23T10:17:36;6.15;;;3.13;;
56752;SDS011;42627;42.646;23.642;2024-03-23T10:19:38;8.43;;;3.53;;
56752;SDS011;42627;42.646;23.642;2024-03-23T10:21:39;7.03;;;2.90;;
56752;SDS011;42627;42.646;23.642;2024-03-23T10:23:41;7.53;;;3.25;;
56752;SDS011;42627;42.646;23.642;2024-03-23T10:25:54;6.45;;;3.08;;
56752;SDS011;42627;42.646;23.642;2024-03-23T10:27:59;5.53;;;2.40;;
56752;SDS011;42627;42.646;23.642;2024-03-23T10:32:08;6.68;;;3.15;;
56752;SDS011;42627;42.646;23.642;2024-03-23T10:34:12;6.30;;;2.80;;
56752;SDS011;42627;42.646;23.642;2024-03-23T10:36:31;4.82;;;2.42;;
56752;SDS011;42627;42.646;23.642;2024-03-23T10:38:42;7.93;;;2.78;;
56752;SDS011;42627;42.646;23.642;2024-03-23T10:40:55;6.82;;;2.97;;
56752;SDS011;42627;42.646;23.642;2024-03-23T10:43:00;5.05;;;2.25;;
56752;SDS011;42627;42.646;23.642;2024-03-23T10:45:06;7.57;;;2.97;;
56752;SDS011;42627;42.646;23.642;2024-03-23T10:47:07;7.45;;;3.20;;
56752;SDS011;42627;42.646;23.642;2024-03-23T10:49:08;6.03;;;2.92;;
56752;SDS011;42627;42.646;23.642;2024-03-23T10:51:10;5.65;;;2.25;;
56752;SDS011;42627;42.646;23.642;2024-03-23T10:53:11;4.38;;;2.20;;
56752;SDS011;42627;42.646;23.642;2024-03-23T10:57:39;5.43;;;2.70;;
56752;SDS011;42627;42.646;23.642;2024-03-23T10:59:41;8.35;;;2.72;;
56752;SDS011;42627;42.646;23.642;2024-03-23T11:01:57;4.82;;;2.63;;
56752;SDS011;42627;42.646;23.642;2024-03-23T11:03:59;5.35;;;2.70;;
56752;SDS011;42627;42.646;23.642;2024-03-23T11:06:00;7.25;;;2.80;;
56752;SDS011;42627;42.646;23.642;2024-03-23T11:08:01;5.95;;;2.85;;
56752;SDS011;42627;42.646;23.642;2024-03-23T11:10:24;5.85;;;2.35;;
56752;SDS011;42627;42.646;23.642;2024-03-23T11:13:21;5.40;;;2.30;;
56752;SDS011;42627;42.646;23.642;2024-03-23T11:15:36;4.47;;;2.30;;
56752;SDS011;42627;42.646;23.642;2024-03-23T11:17:43;3.53;;;1.90;;
56752;SDS011;42627;42.646;23.642;2024-03-23T11:22:03;7.88;;;2.70;;
56752;SDS011;42627;42.646;23.642;2024-03-23T11:24:14;4.35;;;2.40;;
56752;SDS011;42627;42.646;23.642;2024-03-23T11:26:22;5.13;;;2.30;;
56752;SDS011;42627;42.646;23.642;2024-03-23T11:28:23;7.05;;;2.38;;
56752;SDS011;42627;42.646;23.642;2024-03-23T11:32:35;4.13;;;2.05;;
56752;SDS011;42627;42.646;23.642;2024-03-23T11:34:36;5.05;;;1.80;;
56752;SDS011;42627;42.646;23.642;2024-03-23T11:36:39;5.93;;;1.95;;
56752;SDS011;42627;42.646;23.642;2024-03-23T11:38:40;4.38;;;2.30;;
56752;SDS011;42627;42.646;23.642;2024-03-23T11:42:42;3.83;;;1.80;;
56752;SDS011;42627;42.646;23.642;2024-03-23T11:44:43;6.38;;;2.60;;
56752;SDS011;42627;42.646;23.642;2024-03-23T11:49:19;3.50;;;2.13;;
56752;SDS011;42627;42.646;23.642;2024-03-23T11:51:37;4.07;;;2.00;;
56752;SDS011;42627;42.646;23.642;2024-03-23T11:53:38;4.60;;;2.15;;
56752;SDS011;42627;42.646;23.642;2024-03-23T11:57:47;5.03;;;2.33;;
56752;SDS011;42627;42.646;23.642;2024-03-23T11:59:49;5.25;;;2.25;;
56752;SDS011;42627;42.646;23.642;2024-03-23T12:01:59;3.72;;;1.95;;
56752;SDS011;42627;42.646;23.642;2024-03-23T12:04:00;6.25;;;2.53;;
56752;SDS011;42627;42.646;23.642;2024-03-23T12:06:03;5.22;;;2.40;;
56752;SDS011;42627;42.646;23.642;2024-03-23T12:10:36;8.32;;;3.10;;
56752;SDS011;42627;42.646;23.642;2024-03-23T12:12:37;5.93;;;2.80;;
56752;SDS011;42627;42.646;23.642;2024-03-23T12:14:38;4.90;;;2.60;;
56752;SDS011;42627;42.646;23.642;2024-03-23T12:16:48;5.10;;;2.22;;
56752;SDS011;42627;42.646;23.642;2024-03-23T12:18:49;4.32;;;2.28;;
56752;SDS011;42627;42.646;23.642;2024-03-23T12:20:55;5.05;;;2.03;;
56752;SDS011;42627;42.646;23.642;2024-03-23T12:23:04;5.15;;;1.98;;
56752;SDS011;42627;42.646;23.642;2024-03-23T12:25:05;5.07;;;2.17;;
56752;SDS011;42627;42.646;23.642;2024-03-23T12:27:07;5.00;;;2.22;;
56752;SDS011;42627;42.646;23.642;2024-03-23T12:29:08;4.82;;;2.08;;
56752;SDS011;42627;42.646;23.642;2024-03-23T12:33:43;6.20;;;2.42;;
56752;SDS011;42627;42.646;23.642;2024-03-23T12:35:53;4.65;;;2.72;;
56752;SDS011;42627;42.646;23.642;2024-03-23T12:37:55;5.97;;;2.22;;
56752;SDS011;42627;42.646;23.642;2024-03-23T12:39:56;5.38;;;3.05;;
56752;SDS011;42627;42.646;23.642;2024-03-23T12:41:57;6.43;;;2.22;;
56752;SDS011;42627;42.646;23.642;2024-03-23T12:44:06;5.70;;;2.60;;
56752;SDS011;42627;42.646;23.642;2024-03-23T12:46:11;5.15;;;2.10;;
56752;SDS011;42627;42.646;23.642;2024-03-23T12:48:12;4.85;;;2.47;;
56752;SDS011;42627;42.646;23.642;2024-03-23T12:52:24;5.50;;;2.47;;
56752;SDS011;42627;42.646;23.642;2024-03-23T12:54:28;5.50;;;2.72;;
56752;SDS011;42627;42.646;23.642;2024-03-23T12:56:30;5.95;;;2.63;;
56752;SDS011;42627;42.646;23.642;2024-03-23T12:58:31;6.13;;;2.67;;
56752;SDS011;42627;42.646;23.642;2024-03-23T13:00:32;6.22;;;2.42;;
56752;SDS011;42627;42.646;23.642;2024-03-23T13:02:33;5.15;;;2.67;;
56752;SDS011;42627;42.646;23.642;2024-03-23T13:04:35;6.45;;;2.40;;
56752;SDS011;42627;42.646;23.642;2024-03-23T13:06:44;5.90;;;2.72;;
56752;SDS011;42627;42.646;23.642;2024-03-23T13:08:54;4.70;;;2.55;;
56752;SDS011;42627;42.646;23.642;2024-03-23T13:11:05;6.40;;;2.88;;
56752;SDS011;42627;42.646;23.642;2024-03-23T13:13:06;6.72;;;2.35;;
56752;SDS011;42627;42.646;23.642;2024-03-23T13:15:08;4.28;;;2.45;;
56752;SDS011;42627;42.646;23.642;2024-03-23T13:17:09;4.32;;;2.53;;
56752;SDS011;42627;42.646;23.642;2024-03-23T13:19:10;6.13;;;2.83;;
56752;SDS011;42627;42.646;23.642;2024-03-23T13:21:11;5.50;;;2.33;;
56752;SDS011;42627;42.646;23.642;2024-03-23T13:23:12;5.80;;;2.65;;
56752;SDS011;42627;42.646;23.642;2024-03-23T13:25:25;5.20;;;2.85;;
56752;SDS011;42627;42.646;23.642;2024-03-23T13:27:26;7.18;;;3.50;;
56752;SDS011;42627;42.646;23.642;2024-03-23T13:29:27;6.28;;;3.47;;
56752;SDS011;42627;42.646;23.642;2024-03-23T13:31:28;7.85;;;3.28;;
56752;SDS011;42627;42.646;23.642;2024-03-23T13:33:29;8.32;;;2.70;;
56752;SDS011;42627;42.646;23.642;2024-03-23T13:35:33;5.68;;;2.78;;
56752;SDS011;42627;42.646;23.642;2024-03-23T14:14:38;7.40;;;2.65;;
56752;SDS011;42627;42.646;23.642;2024-03-23T14:23:12;6.03;;;2.78;;
56752;SDS011;42627;42.646;23.642;2024-03-23T14:25:28;5.30;;;2.45;;
56752;SDS011;42627;42.646;23.642;2024-03-23T14:51:58;6.35;;;2.85;;
56752;SDS011;42627;42.646;23.642;2024-03-23T14:53:59;5.85;;;3.20;;
56752;SDS011;42627;42.646;23.642;2024-03-23T15:01:15;5.57;;;2.90;;
56752;SDS011;42627;42.646;23.642;2024-03-23T15:03:16;6.60;;;3.25;;
56752;SDS011;42627;42.646;23.642;2024-03-23T15:05:17;6.18;;;3.03;;
56752;SDS011;42627;42.646;23.642;2024-03-23T15:07:18;7.13;;;3.03;;
56752;SDS011;42627;42.646;23.642;2024-03-23T15:09:19;5.00;;;2.42;;
56752;SDS011;42627;42.646;23.642;2024-03-23T15:11:20;5.07;;;2.67;;
56752;SDS011;42627;42.646;23.642;2024-03-23T15:13:22;5.95;;;3.08;;
56752;SDS011;42627;42.646;23.642;2024-03-23T15:17:47;23.23;;;3.00;;
56752;SDS011;42627;42.646;23.642;2024-03-23T15:19:48;10.63;;;2.45;;
56752;SDS011;42627;42.646;23.642;2024-03-23T15:21:50;5.03;;;2.45;;
56752;SDS011;42627;42.646;23.642;2024-03-23T15:23:51;4.97;;;2.50;;
56752;SDS011;42627;42.646;23.642;2024-03-23T15:31:09;4.03;;;2.05;;
56752;SDS011;42627;42.646;23.642;2024-03-23T15:33:10;4.32;;;2.22;;
56752;SDS011;42627;42.646;23.642;2024-03-23T15:35:11;5.60;;;2.30;;
56752;SDS011;42627;42.646;23.642;2024-03-23T15:37:12;5.32;;;2.10;;
56752;SDS011;42627;42.646;23.642;2024-03-23T15:39:14;5.05;;;2.13;;
56752;SDS011;42627;42.646;23.642;2024-03-23T15:41:16;6.75;;;2.30;;
56752;SDS011;42627;42.646;23.642;2024-03-23T15:43:17;34.00;;;4.68;;
56752;SDS011;42627;42.646;23.642;2024-03-23T15:45:27;14.25;;;3.58;;
56752;SDS011;42627;42.646;23.642;2024-03-23T15:47:28;9.15;;;2.80;;
56752;SDS011;42627;42.646;23.642;2024-03-23T15:49:29;5.85;;;2.72;;
56752;SDS011;42627;42.646;23.642;2024-03-23T15:51:31;6.25;;;2.55;;
56752;SDS011;42627;42.646;23.642;2024-03-23T15:53:37;6.32;;;2.50;;
56752;SDS011;42627;42.646;23.642;2024-03-23T15:58:28;11.05;;;3.45;;
56752;SDS011;42627;42.646;23.642;2024-03-23T16:00:58;30.73;;;9.93;;
56752;SDS011;42627;42.646;23.642;2024-03-23T16:02:59;37.72;;;10.75;;
56752;SDS011;42627;42.646;23.642;2024-03-23T16:05:00;57.17;;;15.25;;
56752;SDS011;42627;42.646;23.642;2024-03-23T16:07:04;48.75;;;15.05;;
56752;SDS011;42627;42.646;23.642;2024-03-23T16:09:05;21.40;;;7.53;;
56752;SDS011;42627;42.646;23.642;2024-03-23T16:11:09;15.77;;;5.82;;
56752;SDS011;42627;42.646;23.642;2024-03-23T16:13:10;11.07;;;4.60;;
56752;SDS011;42627;42.646;23.642;2024-03-23T16:15:11;7.93;;;3.70;;
56752;SDS011;42627;42.646;23.642;2024-03-23T16:17:13;9.48;;;3.53;;